createdAt,value
2018-10-19T00:00:54.786Z,97846.55
2018-10-19T00:03:21.683Z,97848.38
2018-10-19T00:05:48.578Z,97851.80
2018-10-19T00:08:15.462Z,97858.88
2018-10-19T00:10:42.362Z,97861.52
2018-10-19T00:13:09.236Z,97866.25
2018-10-19T00:15:36.154Z,97864.94
2018-10-19T00:18:03.051Z,97868.59
2018-10-19T00:20:29.957Z,97865.97
2018-10-19T00:22:56.896Z,97868.88
2018-10-19T00:25:23.766Z,97869.39
2018-10-19T00:27:50.691Z,97866.48
2018-10-19T00:30:17.618Z,97875.96
2018-10-19T00:32:44.501Z,97869.39
2018-10-19T00:35:11.452Z,97866.77
2018-10-19T00:37:38.529Z,97858.09
2018-10-19T00:40:05.416Z,97856.78
2018-10-19T00:42:32.300Z,97863.11
2018-10-19T00:44:59.213Z,97858.61
2018-10-19T00:47:26.173Z,97863.34
2018-10-19T00:49:53.060Z,97856.26
2018-10-19T00:52:19.957Z,97853.91
2018-10-19T00:54:46.850Z,97850.25
2018-10-19T00:57:13.789Z,97847.86
2018-10-19T00:59:40.868Z,97854.95
2018-10-19T01:02:07.762Z,97855.22
2018-10-19T01:04:34.668Z,97855.73
2018-10-19T01:07:01.575Z,97851.28
2018-10-19T01:09:28.519Z,97844.16
2018-10-19T01:11:55.435Z,97845.23
2018-10-19T01:14:22.327Z,97846.27
2018-10-19T01:16:49.230Z,97843.61
2018-10-19T01:19:16.150Z,97851.56
2018-10-19T01:21:43.073Z,97849.97
2018-10-19T01:24:09.953Z,97851.80
2018-10-19T01:26:36.909Z,97852.59
2018-10-19T01:29:03.848Z,97853.11
2018-10-19T01:31:30.765Z,97850.77
2018-10-19T01:33:57.645Z,97842.88
2018-10-19T01:36:29.841Z,97848.14
2018-10-19T01:38:56.731Z,97843.13
2018-10-19T01:41:23.634Z,97844.95
2018-10-19T01:43:50.583Z,97841.57
2018-10-19T01:46:17.488Z,97846.03
2018-10-19T01:48:44.402Z,97840.50
2018-10-19T01:51:11.345Z,97843.64
2018-10-19T01:53:38.212Z,97842.84
2018-10-19T01:56:05.118Z,97844.16
2018-10-19T01:58:32.005Z,97853.88
2018-10-19T02:00:58.902Z,97861.52
2018-10-19T02:03:25.794Z,97862.83
2018-10-19T02:05:52.686Z,97858.09
2018-10-19T02:08:19.569Z,97857.02
2018-10-19T02:10:46.496Z,97852.56
2018-10-19T02:13:13.393Z,97864.31
2018-10-19T02:15:40.319Z,97861.99
2018-10-19T02:18:07.405Z,97862.27
2018-10-19T02:20:34.309Z,97869.08
2018-10-19T02:23:01.315Z,97863.00
2018-10-19T02:25:28.184Z,97860.09
2018-10-19T02:27:55.083Z,97857.19
2018-10-19T02:30:21.977Z,97859.02
2018-10-19T02:32:48.996Z,97861.64
2018-10-19T02:35:16.040Z,97862.69
2018-10-19T02:37:42.826Z,97860.85
2018-10-19T02:40:10.321Z,97865.31
2018-10-19T02:42:37.686Z,97866.34
2018-10-19T02:45:04.590Z,97865.83
2018-10-19T02:47:31.513Z,97856.63
2018-10-19T02:49:58.499Z,97856.63
2018-10-19T02:52:25.388Z,97858.98
2018-10-19T02:54:52.401Z,97861.89
2018-10-19T02:57:19.354Z,97858.19
2018-10-19T02:59:46.238Z,97861.09
2018-10-19T03:02:13.157Z,97860.81
2018-10-19T03:04:40.058Z,97864.75
2018-10-19T03:07:07.259Z,97860.02
2018-10-19T03:09:34.167Z,97864.23
2018-10-19T03:12:01.076Z,97863.44
2018-10-19T03:14:28.233Z,97857.91
2018-10-19T03:16:55.246Z,97858.70
2018-10-19T03:19:22.137Z,97862.64
2018-10-19T03:21:49.061Z,97856.59
2018-10-19T03:24:15.949Z,97854.77
2018-10-19T03:26:42.833Z,97856.31
2018-10-19T03:29:09.808Z,97860.25
2018-10-19T03:31:36.704Z,97866.03
2018-10-19T03:34:03.757Z,97857.63
2018-10-19T03:36:30.658Z,97860.77
2018-10-19T03:38:57.601Z,97861.05
2018-10-19T03:41:24.529Z,97857.63
2018-10-19T03:43:51.432Z,97859.46
2018-10-19T03:46:18.380Z,97856.31
2018-10-19T03:48:45.285Z,97857.63
2018-10-19T03:51:12.231Z,97864.72
2018-10-19T03:53:39.081Z,97867.86
2018-10-19T03:56:05.987Z,97861.29
2018-10-19T03:58:32.894Z,97864.44
2018-10-19T04:00:59.817Z,97870.48
2018-10-19T04:03:26.728Z,97871.00
2018-10-19T04:05:53.666Z,97869.41
2018-10-19T04:08:20.557Z,97876.25
2018-10-19T04:10:47.510Z,97870.48
2018-10-19T04:13:14.401Z,97868.61
2018-10-19T04:15:41.300Z,97866.78
2018-10-19T04:18:08.206Z,97870.72
2018-10-19T04:20:35.130Z,97868.09
2018-10-19T04:23:05.838Z,97871.24
2018-10-19T04:25:32.713Z,97871.24
2018-10-19T04:27:59.613Z,97874.66
2018-10-19T04:30:26.508Z,97869.92
2018-10-19T04:32:53.420Z,97874.39
2018-10-19T04:35:20.318Z,97876.49
2018-10-19T04:37:47.254Z,97882.78
2018-10-19T04:40:14.158Z,97876.73
2018-10-19T04:42:41.045Z,97883.30
2018-10-19T04:45:07.977Z,97882.78
2018-10-19T04:47:34.907Z,97880.67
2018-10-19T04:50:01.858Z,97883.30
2018-10-19T04:52:28.757Z,97888.55
2018-10-19T04:54:55.670Z,97891.17
2018-10-19T04:57:22.568Z,97888.55
2018-10-19T04:59:49.464Z,97891.69
2018-10-19T05:02:16.378Z,97901.16
2018-10-19T05:04:43.312Z,97894.32
2018-10-19T05:07:10.196Z,97893.50
2018-10-19T05:09:37.093Z,97892.70
2018-10-19T05:12:04.000Z,97895.63
2018-10-19T05:14:30.902Z,97896.95
2018-10-19T05:16:57.897Z,97885.61
2018-10-19T05:19:24.748Z,97892.18
2018-10-19T05:21:51.637Z,97896.64
2018-10-19T05:24:18.535Z,97901.09
2018-10-19T05:26:45.459Z,97903.20
2018-10-19T05:29:12.449Z,97901.61
2018-10-19T05:31:39.267Z,97905.03
2018-10-19T05:34:06.198Z,97910.28
2018-10-19T05:36:33.101Z,97906.86
2018-10-19T05:39:00.080Z,97917.89
2018-10-19T05:41:27.024Z,97914.74
2018-10-19T05:43:53.945Z,97918.16
2018-10-19T05:46:20.822Z,97917.37
2018-10-19T05:48:47.727Z,97923.14
2018-10-19T05:51:14.624Z,97925.77
2018-10-19T05:53:41.523Z,97927.08
2018-10-19T05:56:09.124Z,97930.50
2018-10-19T05:58:36.297Z,97938.38
2018-10-19T06:01:03.185Z,97942.04
2018-10-19T06:03:30.090Z,97947.57
2018-10-19T06:05:56.988Z,97952.54
2018-10-19T06:08:23.885Z,97955.45
2018-10-19T06:10:50.857Z,97952.78
2018-10-19T06:13:17.744Z,97955.97
2018-10-19T06:15:44.750Z,97958.31
2018-10-19T06:18:11.646Z,97959.11
2018-10-19T06:20:38.550Z,97964.08
2018-10-19T06:23:05.529Z,97961.73
2018-10-19T06:25:32.365Z,97962.53
2018-10-19T06:27:59.282Z,97957.80
2018-10-19T06:30:26.190Z,97969.61
2018-10-19T06:32:53.174Z,97970.12
2018-10-19T06:35:20.064Z,97976.69
2018-10-19T06:37:46.961Z,97980.91
2018-10-19T06:40:13.882Z,97978.80
2018-10-19T06:42:40.785Z,97984.57
2018-10-19T06:45:07.919Z,97986.17
2018-10-19T06:47:34.817Z,97987.72
2018-10-19T06:50:01.797Z,97994.56
2018-10-19T06:52:28.653Z,97998.50
2018-10-19T06:54:55.578Z,97996.16
2018-10-19T06:57:22.502Z,97996.39
2018-10-19T06:59:49.407Z,98007.17
2018-10-19T07:02:16.399Z,98006.38
2018-10-19T07:04:43.234Z,98011.63
2018-10-19T07:07:10.322Z,98016.09
2018-10-19T07:09:37.230Z,98012.95
2018-10-19T07:12:04.228Z,98018.20
2018-10-19T07:14:31.113Z,98016.88
2018-10-19T07:16:58.049Z,98008.48
2018-10-19T07:19:24.942Z,98017.16
2018-10-19T07:21:51.924Z,98016.37
2018-10-19T07:24:18.754Z,98014.02
2018-10-19T07:26:45.646Z,98011.11
2018-10-19T07:29:12.630Z,98013.23
2018-10-19T07:31:39.499Z,98014.02
2018-10-19T07:34:06.401Z,98021.39
2018-10-19T07:36:33.355Z,98021.63
2018-10-19T07:39:00.226Z,98022.42
2018-10-19T07:41:27.129Z,98024.53
2018-10-19T07:44:00.625Z,98027.16
2018-10-19T07:46:27.517Z,98027.44
2018-10-19T07:48:54.429Z,98026.13
2018-10-19T07:51:21.321Z,98026.95
2018-10-19T07:53:48.233Z,98031.69
2018-10-19T07:56:15.181Z,98031.38
2018-10-19T07:58:42.219Z,98036.14
2018-10-19T08:01:09.200Z,98039.56
2018-10-19T08:03:36.085Z,98038.25
2018-10-19T08:06:02.974Z,98039.05
2018-10-19T08:08:29.897Z,98043.03
2018-10-19T08:10:56.843Z,98045.42
2018-10-19T08:13:23.733Z,98041.25
2018-10-19T08:15:50.622Z,98038.11
2018-10-19T08:18:17.521Z,98044.44
2018-10-19T08:20:44.413Z,98042.61
2018-10-19T08:23:11.329Z,98034.97
2018-10-19T08:25:38.254Z,98034.17
2018-10-19T08:28:05.177Z,98038.11
2018-10-19T08:30:32.064Z,98034.41
2018-10-19T08:32:58.949Z,98037.83
2018-10-19T08:35:25.843Z,98034.13
2018-10-19T08:37:52.742Z,98037.55
2018-10-19T08:40:19.649Z,98036.75
2018-10-19T08:42:46.565Z,98035.72
2018-10-19T08:45:13.487Z,98037.55
2018-10-19T08:47:40.435Z,98040.17
2018-10-19T08:50:07.456Z,98041.77
2018-10-19T08:52:34.353Z,98041.77
2018-10-19T08:55:01.325Z,98042.05
2018-10-19T08:57:28.150Z,98040.22
2018-10-19T08:59:55.082Z,98042.33
2018-10-19T09:02:21.948Z,98041.02
2018-10-19T09:04:48.868Z,98048.66
2018-10-19T09:07:15.763Z,98049.97
2018-10-19T09:09:42.671Z,98046.03
2018-10-19T09:12:09.567Z,98038.67
2018-10-19T09:14:36.466Z,98043.17
2018-10-19T09:17:03.458Z,98039.23
2018-10-19T09:19:30.261Z,98040.83
2018-10-19T09:21:57.149Z,98040.31
2018-10-19T09:24:24.042Z,98044.56
2018-10-19T09:26:50.941Z,98038.00
2018-10-19T09:29:17.843Z,98042.73
2018-10-19T09:31:44.742Z,98043.53
2018-10-19T09:34:11.658Z,98042.78
2018-10-19T09:36:38.618Z,98039.63
2018-10-19T09:39:05.517Z,98040.15
2018-10-19T09:41:32.383Z,98037.29
2018-10-19T09:43:59.277Z,98042.30
2018-10-19T09:46:26.170Z,98043.38
2018-10-19T09:48:53.089Z,98043.38
2018-10-19T09:51:20.023Z,98041.03
2018-10-19T09:53:46.905Z,98046.57
2018-10-19T09:56:13.854Z,98048.45
2018-10-19T09:58:40.692Z,98045.54
2018-10-19T10:01:12.961Z,98045.34
2018-10-19T10:03:39.841Z,98050.87
2018-10-19T10:06:06.743Z,98049.83
2018-10-19T10:08:33.649Z,98047.73
2018-10-19T10:11:00.553Z,98046.45
2018-10-19T10:13:27.454Z,98033.59
2018-10-19T10:15:54.450Z,98035.19
2018-10-19T10:18:21.277Z,98033.36
2018-10-19T10:20:48.169Z,98036.55
2018-10-19T10:23:15.053Z,98032.09
2018-10-19T10:25:41.946Z,98028.15
2018-10-19T10:28:08.864Z,98028.70
2018-10-19T10:30:35.752Z,98026.36
2018-10-19T10:33:02.660Z,98025.84
2018-10-19T10:35:29.548Z,98027.22
2018-10-19T10:37:56.437Z,98028.02
2018-10-19T10:40:23.338Z,98030.41
2018-10-19T10:42:50.220Z,98027.55
2018-10-19T10:45:17.138Z,98029.09
2018-10-19T10:47:44.025Z,98022.05
2018-10-19T10:50:10.921Z,98018.39
2018-10-19T10:52:37.819Z,98024.72
2018-10-19T10:55:04.732Z,98018.95
2018-10-19T10:57:31.629Z,98017.11
2018-10-19T10:59:58.551Z,98012.45
2018-10-19T11:02:25.441Z,98010.09
2018-10-19T11:04:52.338Z,98008.55
2018-10-19T11:07:19.346Z,98008.03
2018-10-19T11:09:46.181Z,98005.70
2018-10-19T11:12:13.069Z,98002.25
2018-10-19T11:14:40.021Z,98003.08
2018-10-19T11:17:06.912Z,97999.41
2018-10-19T11:19:33.808Z,97998.38
2018-10-19T11:22:00.732Z,97995.27
2018-10-19T11:24:27.624Z,97993.44
2018-10-19T11:26:54.858Z,97994.52
2018-10-19T11:29:21.746Z,97991.60
2018-10-19T11:31:48.641Z,97994.52
2018-10-19T11:34:15.638Z,97987.42
2018-10-19T11:36:42.483Z,97986.69
2018-10-19T11:39:10.165Z,97988.56
2018-10-19T11:41:37.056Z,97988.32
2018-10-19T11:44:04.009Z,97985.97
2018-10-19T11:46:30.909Z,97991.27
2018-10-19T11:48:57.918Z,97982.06
2018-10-19T11:51:24.722Z,97978.91
2018-10-19T11:53:51.603Z,97976.05
2018-10-19T11:56:18.503Z,97977.64
2018-10-19T11:58:45.427Z,97973.97
2018-10-19T12:01:12.379Z,97970.61
2018-10-19T12:03:39.392Z,97960.89
2018-10-19T12:06:06.192Z,97965.11
2018-10-19T12:08:33.081Z,97966.70
2018-10-19T12:11:00.129Z,97960.92
2018-10-19T12:13:27.205Z,97950.16
2018-10-19T12:15:54.122Z,97954.11
2018-10-19T12:18:21.013Z,97945.18
2018-10-19T12:20:47.920Z,97951.23
2018-10-19T12:23:14.826Z,97946.25
2018-10-19T12:25:41.717Z,97943.10
2018-10-19T12:28:08.634Z,97942.86
2018-10-19T12:30:35.525Z,97941.82
2018-10-19T12:33:02.464Z,97942.09
2018-10-19T12:35:29.373Z,97934.52
2018-10-19T12:37:56.247Z,97931.64
2018-10-19T12:40:23.141Z,97945.83
2018-10-19T12:42:50.035Z,97934.79
2018-10-19T12:45:17.029Z,97934.79
2018-10-19T12:47:44.146Z,97940.84
2018-10-19T12:50:11.057Z,97938.49
2018-10-19T12:52:37.974Z,97941.13
2018-10-19T12:55:04.894Z,97938.25
2018-10-19T12:57:31.912Z,97938.25
2018-10-19T12:59:58.750Z,97937.97
2018-10-19T13:02:25.686Z,97925.62
2018-10-19T13:04:52.588Z,97927.73
2018-10-19T13:07:19.526Z,97926.69
2018-10-19T13:09:46.441Z,97924.88
2018-10-19T13:12:13.328Z,97918.03
2018-10-19T13:14:40.330Z,97919.10
2018-10-19T13:17:07.461Z,97911.73
2018-10-19T13:19:34.356Z,97919.34
2018-10-19T13:22:01.245Z,97920.97
2018-10-19T13:24:28.147Z,97917.82
2018-10-19T13:26:55.167Z,97916.75
2018-10-19T13:29:22.063Z,97912.80
2018-10-19T13:31:48.955Z,97916.47
2018-10-19T13:34:15.929Z,97912.56
2018-10-19T13:36:42.810Z,97915.47
2018-10-19T13:39:10.508Z,97909.90
2018-10-19T13:41:37.703Z,97905.64
2018-10-19T13:44:04.581Z,97906.20
2018-10-19T13:46:31.479Z,97906.75
2018-10-19T13:48:58.364Z,97909.92
2018-10-19T13:51:25.262Z,97906.50
2018-10-19T13:53:52.157Z,97903.88
2018-10-19T13:56:19.036Z,97906.23
2018-10-19T13:58:46.189Z,97905.46
2018-10-19T14:01:13.082Z,97908.06
2018-10-19T14:03:39.972Z,97907.54
2018-10-19T14:06:06.857Z,97905.68
2018-10-19T14:08:33.758Z,97908.27
2018-10-19T14:11:00.740Z,97903.53
2018-10-19T14:13:27.605Z,97911.18
2018-10-19T14:15:54.484Z,97908.80
2018-10-19T14:18:21.377Z,97906.41
2018-10-19T14:20:48.297Z,97901.15
2018-10-19T14:23:15.259Z,97909.04
2018-10-19T14:25:42.108Z,97904.02
2018-10-19T14:28:09.019Z,97897.69
2018-10-19T14:30:35.921Z,97897.91
2018-10-19T14:33:02.926Z,97904.48
2018-10-19T14:35:29.805Z,97902.89
2018-10-19T14:37:56.698Z,97908.15
2018-10-19T14:40:23.599Z,97903.17
2018-10-19T14:42:50.500Z,97902.09
2018-10-19T14:45:17.913Z,97908.95
2018-10-19T14:47:45.709Z,97905.24
2018-10-19T14:50:13.462Z,97909.47
2018-10-19T14:52:40.348Z,97901.82
2018-10-19T14:55:07.254Z,97902.06
2018-10-19T14:57:34.145Z,97900.98
2018-10-19T15:00:01.038Z,97910.44
2018-10-19T15:02:27.934Z,97910.72
2018-10-19T15:04:54.895Z,97908.61
2018-10-19T15:07:21.795Z,97898.33
2018-10-19T15:09:48.849Z,97913.06
2018-10-19T15:12:15.597Z,97905.70
2018-10-19T15:14:42.596Z,97906.73
2018-10-19T15:17:09.502Z,97908.84
2018-10-19T15:19:36.403Z,97907.50
2018-10-19T15:22:03.361Z,97916.40
2018-10-19T15:24:30.350Z,97907.44
2018-10-19T15:26:57.259Z,97913.45
2018-10-19T15:29:24.166Z,97915.29
2018-10-19T15:31:51.066Z,97922.14
2018-10-19T15:34:18.032Z,97922.91
2018-10-19T15:36:44.956Z,97920.27
2018-10-19T15:39:12.633Z,97917.89
2018-10-19T15:41:39.707Z,97922.34
2018-10-19T15:44:06.576Z,97913.39
2018-10-19T15:46:33.522Z,97913.91
2018-10-19T15:49:00.392Z,97919.69
2018-10-19T15:51:27.291Z,97917.81
2018-10-19T15:53:54.218Z,97921.24
2018-10-19T15:56:21.105Z,97923.08
2018-10-19T15:58:48.001Z,97926.50
2018-10-19T16:01:14.909Z,97921.97
2018-10-19T16:03:41.800Z,97927.23
2018-10-19T16:06:08.766Z,97933.80
2018-10-19T16:08:35.652Z,97933.01
2018-10-19T16:11:02.582Z,97936.16
2018-10-19T16:13:29.482Z,97939.30
2018-10-19T16:15:56.368Z,97942.17
2018-10-19T16:18:23.255Z,97945.05
2018-10-19T16:20:50.154Z,97945.84
2018-10-19T16:23:17.050Z,97950.02
2018-10-19T16:25:43.932Z,97951.86
2018-10-19T16:28:10.866Z,97957.91
2018-10-19T16:30:37.720Z,97959.74
2018-10-19T16:33:04.691Z,97957.39
2018-10-19T16:35:31.550Z,97958.67
2018-10-19T16:37:58.455Z,97960.27
2018-10-19T16:40:25.349Z,97962.09
2018-10-19T16:42:52.245Z,97968.66
2018-10-19T16:45:19.185Z,97969.98
2018-10-19T16:47:46.069Z,97968.91
2018-10-19T16:50:12.972Z,97975.97
2018-10-19T16:52:39.916Z,97980.22
2018-10-19T16:55:06.766Z,97981.22
2018-10-19T16:57:33.982Z,97988.31
2018-10-19T17:00:00.931Z,97975.86
2018-10-19T17:02:27.840Z,97984.61
2018-10-19T17:04:54.862Z,97987.52
2018-10-19T17:07:21.663Z,97988.79
2018-10-19T17:09:48.610Z,97992.22
2018-10-19T17:12:15.546Z,97990.59
2018-10-19T17:14:42.413Z,97989.00
2018-10-19T17:17:09.304Z,97989.80
2018-10-19T17:19:36.201Z,97990.59
2018-10-19T17:22:03.112Z,97989.00
2018-10-19T17:24:30.023Z,97999.52
2018-10-19T17:26:56.979Z,97996.09
2018-10-19T17:29:23.861Z,97998.20
2018-10-19T17:31:50.776Z,98007.64
2018-10-19T17:34:17.660Z,98002.38
2018-10-19T17:36:44.554Z,98007.13
2018-10-19T17:39:11.916Z,98008.95
2018-10-19T17:41:38.785Z,98013.13
2018-10-19T17:44:05.669Z,98022.09
2018-10-19T17:46:32.558Z,98015.76
2018-10-19T17:48:59.448Z,98022.61
2018-10-19T17:51:26.349Z,98021.53
2018-10-19T17:53:53.294Z,98022.05
2018-10-19T17:56:20.185Z,98025.72
2018-10-19T17:58:47.073Z,98027.83
2018-10-19T18:01:13.977Z,98025.44
2018-10-19T18:03:40.885Z,98031.77
2018-10-19T18:06:07.851Z,98028.86
2018-10-19T18:08:34.673Z,98032.80
2018-10-19T18:11:01.622Z,98031.48
2018-10-19T18:13:28.485Z,98032.53
2018-10-19T18:15:55.423Z,98035.16
2018-10-19T18:18:22.329Z,98040.64
2018-10-19T18:20:49.223Z,98038.58
2018-10-19T18:23:16.417Z,98043.03
2018-10-19T18:25:43.034Z,98046.70
2018-10-19T18:28:09.923Z,98049.84
2018-10-19T18:30:36.809Z,98047.73
2018-10-19T18:33:03.727Z,98055.90
2018-10-19T18:35:30.648Z,98057.45
2018-10-19T18:37:57.578Z,98057.97
2018-10-19T18:40:24.457Z,98065.34
2018-10-19T18:42:51.335Z,98057.45
2018-10-19T18:45:18.254Z,98057.97
2018-10-19T18:47:45.149Z,98058.25
2018-10-19T18:50:12.217Z,98059.28
2018-10-19T18:52:39.313Z,98059.28
2018-10-19T18:55:06.223Z,98060.31
2018-10-19T18:57:33.092Z,98063.95
2018-10-19T19:00:00.002Z,98065.27
2018-10-19T19:02:26.898Z,98061.84
2018-10-19T19:04:54.076Z,98070.52
2018-10-19T19:07:20.961Z,98070.23
2018-10-19T19:09:53.052Z,98076.80
2018-10-19T19:12:19.938Z,98080.75
2018-10-19T19:14:46.817Z,98076.29
2018-10-19T19:17:13.795Z,98081.27
2018-10-19T19:19:40.624Z,98082.58
2018-10-19T19:22:07.512Z,98079.67
2018-10-19T19:24:39.877Z,98082.06
2018-10-19T19:27:06.774Z,98088.35
2018-10-19T19:29:33.666Z,98093.61
2018-10-19T19:32:00.585Z,98096.23
2018-10-19T19:34:31.077Z,98094.92
2018-10-19T19:36:57.972Z,98092.81
2018-10-19T19:39:24.863Z,98095.44
2018-10-19T19:41:57.222Z,98099.90
2018-10-19T19:44:24.116Z,98096.98
2018-10-19T19:46:51.064Z,98092.25
2018-10-19T19:49:23.228Z,98096.19
2018-10-19T19:51:50.115Z,98101.45
2018-10-19T19:54:17.013Z,98102.24
2018-10-19T19:56:43.912Z,98102.48
2018-10-19T19:59:10.856Z,98099.61
2018-10-19T20:01:38.208Z,98104.59
2018-10-19T20:04:05.134Z,98102.48
2018-10-19T20:06:32.053Z,98103.80
2018-10-19T20:08:58.954Z,98105.91
2018-10-19T20:11:25.850Z,98108.53
2018-10-19T20:13:52.780Z,98119.84
2018-10-19T20:16:19.847Z,98113.27
2018-10-19T20:18:46.870Z,98115.34
2018-10-19T20:21:13.770Z,98122.70
2018-10-19T20:23:40.769Z,98120.08
2018-10-19T20:26:07.850Z,98127.96
2018-10-19T20:28:34.658Z,98125.84
2018-10-19T20:31:01.665Z,98127.68
2018-10-19T20:33:28.646Z,98135.28
2018-10-19T20:35:55.506Z,98138.19
2018-10-19T20:38:22.441Z,98141.33
2018-10-19T20:40:49.398Z,98143.16
2018-10-19T20:43:16.268Z,98147.91
2018-10-19T20:45:43.168Z,98145.80
2018-10-19T20:48:10.052Z,98142.36
2018-10-19T20:50:36.949Z,98150.25
2018-10-19T20:53:03.909Z,98153.91
2018-10-19T20:55:30.777Z,98150.77
2018-10-19T20:57:57.678Z,98156.02
2018-10-19T21:00:24.562Z,98156.02
2018-10-19T21:02:51.488Z,98157.05
2018-10-19T21:05:18.391Z,98158.37
2018-10-19T21:07:45.292Z,98152.83
2018-10-19T21:10:13.447Z,98157.05
2018-10-19T21:12:40.341Z,98155.22
2018-10-19T21:15:07.429Z,98146.77
2018-10-19T21:17:34.451Z,98150.20
2018-10-19T21:20:01.396Z,98150.20
2018-10-19T21:22:28.303Z,98148.09
2018-10-19T21:24:55.206Z,98147.58
2018-10-19T21:27:22.117Z,98148.89
2018-10-19T21:29:49.080Z,98151.23
2018-10-19T21:32:16.068Z,98149.92
2018-10-19T21:34:42.919Z,98146.77
2018-10-19T21:37:09.809Z,98150.72
2018-10-19T21:39:36.724Z,98149.13
2018-10-19T21:42:03.621Z,98149.92
2018-10-19T21:44:30.568Z,98153.55
2018-10-19T21:46:57.486Z,98151.16
2018-10-19T21:49:24.386Z,98158.00
2018-10-19T21:51:51.295Z,98153.27
2018-10-19T21:54:18.276Z,98160.63
2018-10-19T21:56:45.179Z,98166.41
2018-10-19T21:59:12.334Z,98167.72
2018-10-19T22:01:39.253Z,98168.75
2018-10-19T22:04:06.152Z,98175.31
2018-10-19T22:06:33.067Z,98180.05
2018-10-19T22:08:59.954Z,98181.38
2018-10-19T22:11:26.837Z,98178.46
2018-10-19T22:13:53.733Z,98178.46
2018-10-19T22:16:20.717Z,98181.89
2018-10-19T22:18:47.598Z,98188.45
2018-10-19T22:21:14.501Z,98186.34
2018-10-19T22:23:41.394Z,98192.91
2018-10-19T22:26:08.364Z,98199.48
2018-10-19T22:28:35.218Z,98196.85
2018-10-19T22:31:02.178Z,98197.37
2018-10-19T22:33:29.056Z,98193.42
2018-10-19T22:35:55.951Z,98189.77
2018-10-19T22:38:22.910Z,98194.73
2018-10-19T22:40:49.818Z,98199.72
2018-10-19T22:43:16.802Z,98196.85
2018-10-19T22:45:43.624Z,98201.82
2018-10-19T22:48:10.513Z,98206.28
2018-10-19T22:50:37.438Z,98201.54
2018-10-19T22:53:04.373Z,98208.63
2018-10-19T22:55:31.358Z,98204.97
2018-10-19T22:57:58.253Z,98210.22
2018-10-19T23:00:25.185Z,98207.08
2018-10-19T23:02:52.091Z,98207.08
2018-10-19T23:05:19.075Z,98205.48
2018-10-19T23:07:45.954Z,98209.42
2018-10-19T23:10:12.851Z,98215.99
2018-10-19T23:12:39.751Z,98208.63
2018-10-19T23:15:06.913Z,98212.05
2018-10-19T23:17:33.818Z,98214.39
2018-10-19T23:20:00.705Z,98213.08
2018-10-19T23:22:27.593Z,98213.88
2018-10-19T23:24:54.517Z,98219.13
2018-10-19T23:27:21.403Z,98213.36
2018-10-19T23:29:48.295Z,98213.36
2018-10-19T23:32:15.189Z,98213.88
2018-10-19T23:34:42.165Z,98212.28
2018-10-19T23:37:09.149Z,98211.25
2018-10-19T23:39:35.974Z,98219.13
2018-10-19T23:42:02.865Z,98213.08
2018-10-19T23:44:29.744Z,98207.03
2018-10-19T23:46:56.716Z,98207.83
2018-10-19T23:49:23.585Z,98206.00
2018-10-19T23:51:50.483Z,98207.03
2018-10-19T23:54:17.378Z,98213.59
2018-10-19T23:56:44.277Z,98218.34
2018-10-19T23:59:11.321Z,98217.82
